Time;durP1;ratioP1;P1;durP2;ratioP2;P2;SDS_P1;SDS_P2;PMS_P1;PMS_P2;Temp;Humidity;BMP_temperature;BMP_pressure;BME280_temperature;BME280_humidity;BME280_pressure;Samples;Min_cycle;Max_cycle;Signal;HPM_P1;HPM_P2
2022/01/10 00:00:44;;;;;;;0.50;0.50;;;19.90;35.50;;;;;;5146828;27;46886;-18
2022/01/10 00:03:12;;;;;;;0.68;0.60;;;19.80;35.50;;;;;;5146769;27;49086;-18
2022/01/10 00:05:38;;;;;;;0.63;0.63;;;19.80;35.60;;;;;;5146827;27;47007;-18
2022/01/10 00:08:06;;;;;;;0.73;0.73;;;19.70;35.70;;;;;;5147072;27;46857;-18
2022/01/10 00:10:32;;;;;;;0.60;0.60;;;19.70;35.70;;;;;;5146936;27;47178;-18
2022/01/10 00:12:59;;;;;;;0.75;0.70;;;19.70;35.80;;;;;;5150208;27;49060;-18
2022/01/10 00:15:26;;;;;;;0.70;0.70;;;19.60;35.90;;;;;;5149919;27;46882;-34
2022/01/10 00:17:52;;;;;;;0.60;0.60;;;19.60;36.00;;;;;;5150313;27;46808;-18
2022/01/10 00:20:20;;;;;;;0.70;0.60;;;19.50;36.00;;;;;;5149997;27;47365;-18
2022/01/10 00:22:49;;;;;;;0.70;0.65;;;19.50;36.20;;;;;;5149902;27;48195;-18
2022/01/10 00:25:17;;;;;;;0.52;0.52;;;19.40;36.20;;;;;;5149518;27;47025;-18
2022/01/10 00:27:43;;;;;;;0.68;0.68;;;19.40;36.30;;;;;;5149969;27;46869;-18
2022/01/10 00:30:10;;;;;;;0.80;0.80;;;19.30;36.30;;;;;;5149991;27;46996;-18
2022/01/10 00:32:37;;;;;;;0.60;0.60;;;19.20;36.40;;;;;;5149887;27;46894;-18
2022/01/10 00:35:05;;;;;;;0.50;0.50;;;19.20;36.50;;;;;;5149981;27;47148;-18
2022/01/10 00:37:34;;;;;;;0.85;0.85;;;19.10;36.50;;;;;;5149985;27;46910;-17
2022/01/10 00:40:00;;;;;;;0.70;0.70;;;19.10;36.60;;;;;;5150268;27;46903;-17
2022/01/10 00:42:28;;;;;;;1.52;0.63;;;19.10;36.70;;;;;;5149798;27;49097;-18
2022/01/10 00:44:57;;;;;;;1.02;0.57;;;19.00;36.70;;;;;;5149657;27;46926;-18
2022/01/10 00:47:24;;;;;;;1.15;0.70;;;18.90;36.80;;;;;;5149506;27;46920;-18
2022/01/10 00:49:50;;;;;;;1.00;0.90;;;18.90;36.90;;;;;;5150094;27;46857;-18
2022/01/10 00:52:17;;;;;;;0.70;0.70;;;18.80;36.90;;;;;;5149635;27;47062;-18
2022/01/10 00:54:45;;;;;;;0.85;0.70;;;18.80;37.00;;;;;;5149654;27;47440;-18
2022/01/10 00:57:12;;;;;;;0.70;0.70;;;18.80;37.10;;;;;;5149590;27;46866;-19
2022/01/10 00:59:39;;;;;;;0.75;0.65;;;18.70;37.20;;;;;;5149822;27;47165;-18
2022/01/10 01:02:05;;;;;;;0.50;0.50;;;18.60;37.20;;;;;;5148979;27;48844;-18
2022/01/10 01:04:32;;;;;;;0.70;0.70;;;18.70;37.30;;;;;;5149354;27;47769;-18
2022/01/10 01:06:59;;;;;;;0.63;0.63;;;18.60;37.40;;;;;;5149111;27;46830;-17
2022/01/10 01:09:29;;;;;;;0.80;0.80;;;18.50;37.40;;;;;;5149662;27;47125;-18
2022/01/10 01:14:54;;;;;;;0.60;0.60;;;18.50;37.60;;;;;;5146450;27;47201;-18
2022/01/10 01:17:45;;;;;;;0.80;0.77;;;18.40;37.60;;;;;;5149444;27;46878;-18
2022/01/10 01:20:31;;;;;;;0.60;0.60;;;18.40;37.60;;;;;;5149499;27;46891;-18
2022/01/10 01:25:42;;;;;;;0.70;0.70;;;18.30;37.80;;;;;;5146445;27;47064;-18
2022/01/10 01:28:10;;;;;;;0.80;0.70;;;18.20;37.90;;;;;;5149001;27;47227;-18
2022/01/10 01:30:36;;;;;;;0.50;0.50;;;18.20;37.90;;;;;;5149039;27;46957;-18
2022/01/10 01:33:03;;;;;;;0.63;0.63;;;18.10;37.90;;;;;;5148736;27;48137;-17
2022/01/10 01:35:32;;;;;;;0.60;0.60;;;18.10;38.00;;;;;;5148704;27;46987;-18
2022/01/10 01:37:59;;;;;;;0.55;0.55;;;18.10;38.10;;;;;;5148774;27;46882;-18
2022/01/10 01:40:28;;;;;;;0.65;0.65;;;18.10;38.10;;;;;;5148749;27;47017;-18
2022/01/10 01:42:55;;;;;;;0.50;0.50;;;18.10;38.20;;;;;;5148597;27;48222;-18
2022/01/10 01:45:36;;;;;;;0.65;0.65;;;18.10;38.10;;;;;;5148377;27;46820;-17
2022/01/10 01:48:02;;;;;;;0.65;0.65;;;18.30;37.90;;;;;;5148997;27;46890;-18
2022/01/10 01:50:29;;;;;;;0.60;0.60;;;18.60;37.50;;;;;;5148548;27;46921;-18
2022/01/10 01:52:56;;;;;;;0.55;0.55;;;18.90;37.00;;;;;;5148787;27;47934;-18
2022/01/10 01:55:22;;;;;;;0.60;0.60;;;19.20;36.40;;;;;;5148683;27;46927;-18
2022/01/10 01:57:49;;;;;;;0.65;0.65;;;19.50;36.00;;;;;;5148424;27;46815;-18
2022/01/10 02:00:19;;;;;;;0.68;0.68;;;19.70;35.70;;;;;;5148603;27;47270;-18
2022/01/10 02:02:47;;;;;;;0.60;0.60;;;19.90;35.50;;;;;;5148629;27;48103;-18
2022/01/10 02:05:14;;;;;;;0.60;0.60;;;20.00;35.30;;;;;;5148375;27;47231;-18
2022/01/10 02:07:41;;;;;;;0.57;0.57;;;20.10;35.20;;;;;;5148565;27;47025;-18
2022/01/10 02:10:08;;;;;;;0.73;0.73;;;20.20;35.00;;;;;;5148598;27;46903;-18
2022/01/10 02:12:35;;;;;;;0.75;0.65;;;20.30;35.00;;;;;;5148399;27;48103;-18
2022/01/10 02:15:01;;;;;;;0.80;0.80;;;20.30;34.90;;;;;;5148053;27;46796;-18
2022/01/10 02:17:34;;;;;;;0.80;0.60;;;20.30;34.90;;;;;;5148388;27;46935;-18
2022/01/10 02:20:03;;;;;;;0.47;0.47;;;20.30;34.90;;;;;;5148390;27;47053;-18
2022/01/10 02:22:30;;;;;;;0.70;0.70;;;20.30;34.90;;;;;;5147947;27;47802;-18
2022/01/10 02:24:56;;;;;;;0.60;0.60;;;20.30;34.90;;;;;;5148152;27;46864;-18
2022/01/10 02:27:23;;;;;;;0.55;0.55;;;20.30;34.90;;;;;;5148177;27;46934;-19
2022/01/10 02:29:50;;;;;;;0.55;0.55;;;20.30;35.00;;;;;;5148383;27;46853;-19
2022/01/10 02:32:17;;;;;;;0.80;0.77;;;20.20;34.90;;;;;;5147992;27;48238;-18
2022/01/10 02:34:43;;;;;;;0.70;0.70;;;20.20;35.00;;;;;;5147787;27;47160;-18
2022/01/10 02:37:11;;;;;;;0.60;0.60;;;20.20;35.10;;;;;;5147886;27;47228;-18
2022/01/10 02:39:38;;;;;;;0.60;0.60;;;20.10;35.10;;;;;;5148005;27;46929;-17
2022/01/10 02:42:05;;;;;;;0.70;0.70;;;20.00;35.10;;;;;;5147621;27;46943;-18
2022/01/10 02:44:32;;;;;;;0.73;0.70;;;20.00;35.20;;;;;;5147690;27;47116;-18
2022/01/10 02:46:58;;;;;;;0.80;0.77;;;19.90;35.30;;;;;;5147441;27;46860;-18
2022/01/10 02:49:26;;;;;;;0.65;0.65;;;19.90;35.40;;;;;;5147791;27;47267;-18
2022/01/10 02:51:53;;;;;;;0.80;0.80;;;19.80;35.40;;;;;;5147384;27;47913;-19
2022/01/10 02:54:22;;;;;;;0.60;0.60;;;19.80;35.50;;;;;;5147587;27;47302;-18
2022/01/10 02:56:49;;;;;;;0.63;0.63;;;19.70;35.60;;;;;;5147598;27;46875;-18
2022/01/10 02:59:16;;;;;;;0.70;0.70;;;19.70;35.70;;;;;;5148045;27;46820;-18
2022/01/10 03:01:43;;;;;;;0.77;0.77;;;19.60;35.80;;;;;;5147452;27;48785;-18
2022/01/10 03:04:10;;;;;;;0.60;0.60;;;19.60;35.90;;;;;;5147706;27;47461;-19
2022/01/10 03:06:37;;;;;;;0.93;0.90;;;19.50;35.90;;;;;;5147516;27;46941;-18
2022/01/10 03:09:05;;;;;;;0.60;0.60;;;19.40;36.00;;;;;;5147654;27;47136;-18
2022/01/10 03:11:33;;;;;;;0.60;0.60;;;19.40;36.10;;;;;;5147054;27;47064;-18
2022/01/10 03:14:00;;;;;;;0.70;0.70;;;19.30;36.20;;;;;;5147235;27;46844;-18
2022/01/10 03:16:27;;;;;;;0.73;0.70;;;19.30;36.30;;;;;;5147478;27;46860;-18
2022/01/10 03:18:53;;;;;;;0.80;0.75;;;19.20;36.30;;;;;;5147419;27;46915;-18
2022/01/10 03:21:20;;;;;;;0.70;0.70;;;19.10;36.40;;;;;;5146809;27;49048;-18
2022/01/10 03:23:47;;;;;;;0.77;0.77;;;19.10;36.50;;;;;;5147386;27;47085;-18
2022/01/10 03:26:14;;;;;;;0.70;0.70;;;19.00;36.60;;;;;;5147183;27;46778;-18
2022/01/10 03:28:42;;;;;;;0.60;0.60;;;19.00;36.70;;;;;;5147588;27;47274;-18
2022/01/10 03:31:08;;;;;;;0.70;0.70;;;18.90;36.70;;;;;;5147057;27;46846;-18
2022/01/10 03:33:35;;;;;;;0.55;0.55;;;18.90;36.80;;;;;;5147182;27;47231;-18
2022/01/10 03:36:02;;;;;;;0.82;0.82;;;18.80;36.90;;;;;;5147213;27;46913;-18
2022/01/10 03:38:29;;;;;;;1.40;0.90;;;18.80;37.00;;;;;;5147274;27;46892;-18
2022/01/10 03:40:55;;;;;;;0.68;0.68;;;18.70;37.00;;;;;;5146643;27;47178;-18
2022/01/10 03:43:22;;;;;;;0.70;0.70;;;18.70;37.10;;;;;;5146808;27;46908;-18
2022/01/10 03:45:50;;;;;;;0.82;0.82;;;18.70;37.20;;;;;;5146937;27;46881;-18
2022/01/10 03:48:17;;;;;;;0.80;0.70;;;18.60;37.30;;;;;;5151094;27;46924;-17
2022/01/10 03:50:44;;;;;;;0.60;0.60;;;18.60;37.40;;;;;;5150520;27;47972;-18
2022/01/10 03:53:10;;;;;;;0.68;0.63;;;18.50;37.40;;;;;;5150803;27;47017;-19
2022/01/10 03:55:38;;;;;;;0.77;0.77;;;18.40;37.40;;;;;;5150603;27;46806;-18
2022/01/10 03:58:04;;;;;;;1.02;1.02;;;18.40;37.50;;;;;;5150653;27;47032;-18
2022/01/10 04:00:31;;;;;;;0.75;0.75;;;18.40;37.60;;;;;;5149948;27;48119;-18
2022/01/10 04:03:03;;;;;;;0.68;0.68;;;18.30;37.60;;;;;;5150572;27;46857;-18
2022/01/10 04:05:30;;;;;;;0.80;0.80;;;18.30;37.70;;;;;;5150079;27;46858;-18
2022/01/10 04:07:57;;;;;;;0.80;0.80;;;18.20;37.70;;;;;;5150794;27;46812;-17
2022/01/10 04:10:23;;;;;;;0.70;0.70;;;18.20;37.80;;;;;;5150133;27;48766;-18
2022/01/10 04:12:50;;;;;;;0.90;0.90;;;18.10;38.40;;;;;;5150130;27;47016;-17
2022/01/10 04:15:17;;;;;;;0.80;0.80;;;18.10;37.90;;;;;;5150071;27;46918;-18
2022/01/10 04:17:43;;;;;;;0.75;0.75;;;18.10;38.00;;;;;;5150524;27;46825;-18
2022/01/10 04:20:12;;;;;;;0.60;0.60;;;18.10;38.60;;;;;;5150017;27;48122;-17
2022/01/10 04:22:39;;;;;;;1.25;0.77;;;18.00;38.10;;;;;;5150031;27;46965;-18
2022/01/10 04:25:07;;;;;;;0.70;0.70;;;18.10;38.00;;;;;;5149675;27;46870;-17
2022/01/10 04:27:34;;;;;;;0.98;0.73;;;18.20;37.80;;;;;;5150373;27;46825;-18
2022/01/10 04:30:00;;;;;;;0.88;0.63;;;18.40;37.50;;;;;;5150102;27;48882;-18
2022/01/10 04:32:30;;;;;;;0.60;0.60;;;18.80;37.10;;;;;;5150128;27;47075;-18
2022/01/10 04:34:56;;;;;;;0.70;0.70;;;19.10;36.60;;;;;;5149990;27;46886;-18
2022/01/10 04:37:24;;;;;;;0.77;0.77;;;19.30;36.30;;;;;;5150194;27;46926;-18
2022/01/10 04:39:51;;;;;;;0.60;0.60;;;19.50;36.00;;;;;;5149645;27;47685;-18
2022/01/10 04:42:18;;;;;;;0.50;0.50;;;19.60;35.80;;;;;;5149935;27;46868;-18
2022/01/10 04:44:44;;;;;;;0.68;0.68;;;19.70;35.50;;;;;;5149913;27;47015;-18
2022/01/10 04:47:11;;;;;;;0.75;0.75;;;19.80;35.40;;;;;;5149865;27;46869;-18
2022/01/10 04:50:00;;;;;;;0.80;0.70;;;19.90;35.30;;;;;;5149721;27;48869;-18
2022/01/10 04:52:26;;;;;;;0.82;0.80;;;19.90;35.20;;;;;;5149370;27;46940;-18
2022/01/10 04:54:53;;;;;;;0.60;0.60;;;19.90;35.20;;;;;;5149715;27;46920;-18
2022/01/10 04:57:19;;;;;;;0.70;0.70;;;19.90;35.20;;;;;;5149500;27;46951;-18
2022/01/10 04:59:46;;;;;;;0.80;0.80;;;19.90;35.20;;;;;;5149577;27;49029;-18
2022/01/10 05:02:13;;;;;;;1.55;0.90;;;19.90;35.20;;;;;;5149220;27;46976;-19
2022/01/10 05:04:40;;;;;;;0.60;0.60;;;19.90;35.20;;;;;;5149239;27;46971;-18
2022/01/10 05:07:06;;;;;;;0.85;0.70;;;19.90;35.20;;;;;;5149621;27;47352;-18
2022/01/10 05:09:34;;;;;;;1.10;1.00;;;19.90;35.30;;;;;;5149347;27;47955;-18
2022/01/10 05:12:01;;;;;;;0.73;0.73;;;19.90;35.30;;;;;;5148851;27;47410;-18
2022/01/10 05:14:28;;;;;;;0.70;0.70;;;19.80;35.30;;;;;;5149350;27;47024;-18
2022/01/10 05:16:54;;;;;;;0.68;0.68;;;19.80;36.00;;;;;;5149384;27;47073;-18
2022/01/10 05:19:21;;;;;;;0.80;0.80;;;19.70;35.50;;;;;;5149294;27;46889;-17
2022/01/10 05:21:48;;;;;;;0.60;0.60;;;19.70;35.50;;;;;;5149210;27;47502;-19
2022/01/10 05:24:14;;;;;;;0.82;0.77;;;19.70;35.60;;;;;;5149592;27;46920;-17
2022/01/10 05:26:43;;;;;;;0.77;0.77;;;19.60;35.60;;;;;;5148249;27;47295;-17
2022/01/10 05:29:09;;;;;;;0.98;0.98;;;19.60;35.70;;;;;;5148984;27;48250;-17
2022/01/10 05:31:36;;;;;;;0.73;0.73;;;19.50;35.80;;;;;;5148959;27;47110;-17
2022/01/10 05:34:03;;;;;;;0.60;0.60;;;19.40;35.80;;;;;;5148856;27;46762;-17
2022/01/10 05:36:29;;;;;;;0.82;0.82;;;19.40;35.90;;;;;;5149023;27;47395;-17
2022/01/10 05:38:56;;;;;;;0.85;0.85;;;19.30;36.00;;;;;;5148892;27;47791;-17
2022/01/10 05:41:24;;;;;;;0.70;0.70;;;19.30;36.10;;;;;;5148719;27;47073;-17
2022/01/10 05:43:55;;;;;;;0.70;0.70;;;19.20;36.10;;;;;;5149079;27;46818;-17
2022/01/10 05:46:22;;;;;;;0.90;0.90;;;19.20;36.20;;;;;;5149130;27;47081;-16
2022/01/10 05:48:52;;;;;;;0.70;0.70;;;19.10;36.30;;;;;;5148514;27;48296;-17
2022/01/10 05:51:19;;;;;;;0.82;0.82;;;19.10;36.40;;;;;;5148499;27;46984;-17
2022/01/10 05:53:46;;;;;;;0.80;0.80;;;19.00;36.40;;;;;;5148871;27;46878;-17
2022/01/10 05:56:13;;;;;;;1.08;1.00;;;18.90;36.50;;;;;;5148487;27;47263;-17
2022/01/10 05:58:39;;;;;;;0.80;0.80;;;18.90;36.60;;;;;;5148241;27;48106;-17
2022/01/10 06:01:07;;;;;;;0.93;0.90;;;18.80;36.60;;;;;;5148055;27;46821;-16
2022/01/10 06:03:34;;;;;;;1.00;0.90;;;18.80;36.70;;;;;;5148093;27;47033;-17
2022/01/10 06:06:01;;;;;;;0.90;0.90;;;18.70;36.80;;;;;;5148286;27;47338;-17
2022/01/10 06:08:28;;;;;;;1.10;1.10;;;18.70;36.90;;;;;;5148257;27;47061;-17
2022/01/10 06:10:55;;;;;;;1.80;0.95;;;18.60;36.90;;;;;;5148074;27;47270;-17
2022/01/10 06:13:21;;;;;;;1.25;1.15;;;18.60;37.00;;;;;;5148447;27;46826;-17
2022/01/10 06:15:48;;;;;;;1.17;1.13;;;18.60;37.10;;;;;;5148408;27;46963;-17
2022/01/10 06:18:16;;;;;;;1.20;1.10;;;18.50;37.10;;;;;;5148333;27;49039;-17
2022/01/10 06:20:43;;;;;;;1.15;1.05;;;18.40;37.20;;;;;;5148200;27;47014;-17
2022/01/10 06:23:11;;;;;;;1.27;0.90;;;18.40;37.20;;;;;;5148123;27;46691;-17
2022/01/10 06:25:38;;;;;;;1.10;1.00;;;18.40;37.40;;;;;;5147437;27;47970;-16
2022/01/10 06:28:05;;;;;;;0.90;0.90;;;18.30;37.40;;;;;;5147836;27;46930;-17
2022/01/10 06:30:32;;;;;;;1.10;1.10;;;18.30;37.50;;;;;;5147390;27;46970;-17
2022/01/10 06:32:59;;;;;;;1.10;1.10;;;18.20;37.50;;;;;;5147919;27;46913;-17
2022/01/10 06:35:27;;;;;;;0.90;0.90;;;18.20;37.60;;;;;;5147892;27;46946;-17
2022/01/10 06:37:53;;;;;;;1.40;1.30;;;18.20;37.60;;;;;;5147887;27;46864;-17
2022/01/10 06:40:21;;;;;;;1.20;1.10;;;18.10;37.60;;;;;;5147402;27;46867;-17
2022/01/10 06:42:48;;;;;;;0.98;0.95;;;18.10;37.70;;;;;;5147978;27;46824;-17
2022/01/10 06:45:15;;;;;;;1.10;1.00;;;18.00;37.70;;;;;;5147636;27;46889;-17
2022/01/10 06:47:42;;;;;;;1.00;1.00;;;18.00;37.80;;;;;;5147509;27;49286;-17
2022/01/10 06:50:09;;;;;;;1.25;1.15;;;18.00;37.80;;;;;;5147657;27;47074;-17
2022/01/10 06:52:37;;;;;;;1.00;0.95;;;18.10;37.70;;;;;;5147802;27;47082;-18
2022/01/10 06:55:05;;;;;;;1.13;1.00;;;18.30;37.50;;;;;;5131252;27;47208;-17
2022/01/10 06:57:31;;;;;;;0.90;0.90;;;18.60;37.20;;;;;;5138243;27;47889;-18
2022/01/10 06:59:58;;;;;;;1.15;1.05;;;18.90;36.60;;;;;;5147359;27;46980;-16
2022/01/10 07:02:25;;;;;;;1.02;1.02;;;19.20;36.10;;;;;;5147677;27;46948;-17
2022/01/10 07:04:51;;;;;;;1.00;0.98;;;19.50;35.70;;;;;;5147740;27;46844;-18
2022/01/10 07:07:18;;;;;;;0.90;0.90;;;19.70;35.40;;;;;;5147316;27;48245;-16
2022/01/10 07:09:47;;;;;;;1.02;0.85;;;19.90;35.10;;;;;;5147407;27;47434;-19
2022/01/10 07:12:13;;;;;;;0.98;0.98;;;20.00;34.60;;;;;;5125971;27;46904;-16
2022/01/10 07:14:40;;;;;;;0.68;0.68;;;20.10;34.80;;;;;;5125891;27;46897;-16
2022/01/10 07:17:07;;;;;;;0.73;0.73;;;20.20;34.70;;;;;;5125018;27;48769;-16
2022/01/10 07:19:34;;;;;;;0.75;0.75;;;20.20;34.60;;;;;;5126536;27;46954;-15
2022/01/10 07:22:00;;;;;;;0.90;0.90;;;20.20;34.60;;;;;;5128336;27;46842;-16
2022/01/10 07:24:27;;;;;;;1.00;1.00;;;20.20;34.60;;;;;;5130492;27;46909;-16
2022/01/10 07:26:55;;;;;;;0.80;0.80;;;20.20;34.60;;;;;;5129586;27;48937;-16
2022/01/10 07:29:22;;;;;;;1.02;0.90;;;20.20;34.60;;;;;;5129645;27;47176;-17
2022/01/10 07:31:49;;;;;;;0.80;0.77;;;20.20;34.70;;;;;;5128552;27;46934;-16
2022/01/10 07:34:16;;;;;;;1.35;0.90;;;20.20;34.60;;;;;;5128809;27;46931;-17
2022/01/10 07:36:43;;;;;;;1.10;1.10;;;20.20;34.70;;;;;;5146888;27;47240;-17
2022/01/10 07:39:10;;;;;;;0.90;0.90;;;20.20;34.70;;;;;;5149631;27;47088;-17
2022/01/10 07:41:37;;;;;;;0.90;0.90;;;20.10;34.80;;;;;;5149630;27;47003;-17
2022/01/10 07:44:05;;;;;;;1.15;1.05;;;20.10;34.80;;;;;;5149932;27;46976;-17
2022/01/10 07:46:32;;;;;;;0.82;0.82;;;20.00;34.80;;;;;;5150508;27;47822;-17
2022/01/10 07:48:59;;;;;;;1.58;1.35;;;20.00;34.90;;;;;;5150686;27;47422;-18
2022/01/10 07:51:26;;;;;;;1.20;1.10;;;19.90;35.00;;;;;;5150533;27;46878;-17
2022/01/10 07:53:53;;;;;;;1.13;1.10;;;19.90;35.00;;;;;;5150923;27;46836;-18
2022/01/10 07:56:20;;;;;;;0.90;0.90;;;19.80;35.10;;;;;;5150505;27;49120;-16
2022/01/10 07:58:50;;;;;;;0.90;0.90;;;19.70;35.20;;;;;;5150572;27;46812;-17
2022/01/10 08:01:19;;;;;;;1.30;1.20;;;19.70;35.30;;;;;;5150793;27;46930;-17
2022/01/10 08:03:46;;;;;;;1.17;1.00;;;19.70;35.40;;;;;;5148987;27;46970;-17
2022/01/10 08:06:12;;;;;;;1.23;1.13;;;19.60;35.50;;;;;;5150455;27;49065;-17
2022/01/10 08:08:39;;;;;;;2.88;1.30;;;19.50;35.50;;;;;;5150560;27;47459;-18
2022/01/10 08:11:06;;;;;;;1.10;1.10;;;19.50;35.60;;;;;;5150317;27;46994;-16
2022/01/10 08:13:33;;;;;;;1.30;1.20;;;19.40;35.70;;;;;;5150581;27;46925;-17
2022/01/10 08:15:59;;;;;;;2.05;1.33;;;19.40;35.80;;;;;;5150069;27;48837;-17
2022/01/10 08:18:30;;;;;;;0.90;0.90;;;19.30;35.90;;;;;;5150157;27;46838;-17
2022/01/10 08:20:57;;;;;;;1.25;1.15;;;19.20;36.00;;;;;;5149864;27;46843;-17
2022/01/10 08:23:23;;;;;;;1.30;1.20;;;19.20;36.10;;;;;;5150301;27;46989;-17
2022/01/10 08:25:50;;;;;;;1.88;1.40;;;19.10;36.10;;;;;;5148517;27;48230;-17
2022/01/10 08:28:17;;;;;;;1.25;1.15;;;19.10;36.30;;;;;;5149540;27;46945;-16
2022/01/10 08:30:44;;;;;;;2.22;1.40;;;19.00;36.30;;;;;;5149975;27;46802;-16
2022/01/10 08:33:10;;;;;;;1.15;1.15;;;19.00;36.40;;;;;;5138432;27;47093;-17
2022/01/10 08:35:39;;;;;;;2.25;1.40;;;18.90;36.40;;;;;;5141098;27;47104;-17
2022/01/10 08:38:06;;;;;;;1.40;1.30;;;18.90;36.30;;;;;;5146135;27;47139;-18
2022/01/10 08:40:32;;;;;;;1.63;1.40;;;18.80;36.50;;;;;;5148233;27;47035;-18
2022/01/10 08:43:00;;;;;;;1.50;1.40;;;18.80;36.70;;;;;;5141143;27;46913;-17
2022/01/10 08:45:26;;;;;;;1.98;1.30;;;18.70;36.80;;;;;;5148479;27;47925;-18
2022/01/10 08:47:53;;;;;;;2.03;1.80;;;18.70;36.90;;;;;;5147798;27;48837;-18
2022/01/10 08:50:23;;;;;;;1.83;1.38;;;18.60;36.80;;;;;;5147789;27;46842;-18
2022/01/10 08:52:51;;;;;;;1.90;1.73;;;18.60;36.90;;;;;;5148021;27;47194;-17
2022/01/10 08:55:18;;;;;;;1.65;1.35;;;18.50;37.00;;;;;;5147148;27;47831;-17
2022/01/10 08:57:45;;;;;;;1.30;1.20;;;18.50;37.10;;;;;;5147582;27;47406;-17
2022/01/10 09:00:13;;;;;;;1.48;1.38;;;18.50;37.10;;;;;;5147808;27;47123;-17
2022/01/10 09:02:40;;;;;;;1.35;1.25;;;18.40;37.20;;;;;;5149505;27;47365;-17
2022/01/10 09:05:08;;;;;;;1.58;1.40;;;18.40;37.40;;;;;;5149352;27;46943;-17
2022/01/10 09:07:34;;;;;;;1.77;1.23;;;18.40;37.40;;;;;;5149048;27;46850;-17
2022/01/10 09:10:03;;;;;;;1.92;1.70;;;18.30;37.40;;;;;;5149485;27;46994;-17
2022/01/10 09:12:31;;;;;;;1.80;1.58;;;18.30;37.50;;;;;;5149562;27;47148;-17
2022/01/10 09:14:57;;;;;;;1.70;1.40;;;18.30;37.60;;;;;;5149320;27;49105;-18
2022/01/10 09:17:24;;;;;;;1.63;1.40;;;18.20;37.60;;;;;;5149056;27;46889;-18
2022/01/10 09:19:51;;;;;;;1.60;1.50;;;18.20;37.70;;;;;;5149374;27;46791;-18
2022/01/10 09:22:17;;;;;;;1.70;1.55;;;18.20;37.80;;;;;;5149212;27;46868;-17
2022/01/10 09:24:46;;;;;;;1.55;1.45;;;18.10;37.80;;;;;;5149122;27;47771;-17
2022/01/10 09:27:14;;;;;;;1.85;1.52;;;18.10;37.80;;;;;;5148817;27;47164;-17
2022/01/10 09:29:41;;;;;;;2.13;1.73;;;18.10;37.90;;;;;;5149194;27;46827;-18
2022/01/10 09:32:08;;;;;;;1.58;1.48;;;18.00;37.90;;;;;;5149256;27;47141;-18
2022/01/10 09:34:34;;;;;;;1.60;1.50;;;18.10;37.90;;;;;;5149102;27;48321;-17
2022/01/10 09:37:01;;;;;;;1.50;1.40;;;18.20;37.80;;;;;;5148877;27;46981;-17
2022/01/10 09:39:28;;;;;;;2.40;1.92;;;18.30;37.50;;;;;;5149041;27;46916;-18
2022/01/10 09:41:56;;;;;;;1.67;1.48;;;18.60;37.10;;;;;;5148916;27;47040;-17
2022/01/10 09:44:24;;;;;;;1.90;1.67;;;19.00;36.70;;;;;;5147740;27;49088;-18
2022/01/10 09:46:51;;;;;;;1.70;1.60;;;19.30;36.30;;;;;;5148137;27;46948;-17
2022/01/10 09:49:18;;;;;;;1.60;1.50;;;19.50;35.80;;;;;;5148570;27;46855;-17
2022/01/10 09:51:45;;;;;;;2.05;1.48;;;19.60;35.70;;;;;;5148724;27;47319;-17
2022/01/10 09:54:12;;;;;;;1.88;1.60;;;19.80;35.50;;;;;;5148733;27;49141;-17
2022/01/10 09:56:38;;;;;;;1.70;1.60;;;19.90;35.40;;;;;;5148533;27;46901;-17
2022/01/10 09:59:05;;;;;;;2.13;1.80;;;20.00;35.30;;;;;;5148731;27;46876;-18
2022/01/10 10:01:34;;;;;;;1.92;1.83;;;20.10;35.20;;;;;;5148682;27;47263;-18
2022/01/10 10:04:02;;;;;;;3.63;2.03;;;20.10;35.10;;;;;;5148558;27;48925;-18
2022/01/10 10:06:30;;;;;;;1.75;1.65;;;20.10;35.10;;;;;;5147871;27;46809;-18
2022/01/10 10:08:58;;;;;;;2.10;1.90;;;20.20;35.10;;;;;;5148395;27;46921;-18
2022/01/10 10:11:36;;;;;;;2.83;2.30;;;20.20;35.10;;;;;;5148187;27;46947;-18
2022/01/10 10:14:04;;;;;;;2.25;1.98;;;20.20;35.10;;;;;;5148205;27;47932;-18
2022/01/10 10:16:35;;;;;;;2.40;2.20;;;20.20;35.10;;;;;;5147534;27;47074;-18
2022/01/10 10:19:02;;;;;;;2.95;2.30;;;20.20;35.10;;;;;;5148104;27;46818;-18
2022/01/10 10:21:28;;;;;;;2.40;2.20;;;20.20;35.10;;;;;;5148126;27;47077;-18
2022/01/10 10:23:55;;;;;;;2.28;2.08;;;20.20;35.10;;;;;;5148177;27;47785;-19
2022/01/10 10:26:24;;;;;;;2.50;2.30;;;20.10;35.10;;;;;;5144855;27;47418;-18
2022/01/10 10:28:52;;;;;;;2.65;2.45;;;20.10;35.20;;;;;;5146082;27;47013;-19
2022/01/10 10:31:24;;;;;;;2.40;2.20;;;20.10;35.30;;;;;;5147777;27;47227;-18
2022/01/10 10:33:54;;;;;;;2.85;2.40;;;20.10;35.30;;;;;;5147797;27;47853;-18
2022/01/10 10:36:21;;;;;;;2.40;2.20;;;20.00;35.40;;;;;;5147871;27;47449;-18
2022/01/10 10:38:48;;;;;;;2.78;2.17;;;20.00;35.40;;;;;;5147478;27;46929;-18
2022/01/10 10:41:14;;;;;;;2.90;2.58;;;19.90;35.40;;;;;;5147850;27;46913;-18
2022/01/10 10:43:42;;;;;;;3.08;2.40;;;19.90;35.60;;;;;;5147675;27;47972;-18
2022/01/10 10:46:12;;;;;;;2.28;2.10;;;19.80;35.60;;;;;;5147315;27;46962;-18
2022/01/10 10:48:40;;;;;;;3.25;2.20;;;19.80;35.80;;;;;;5147821;27;46945;-18
2022/01/10 10:51:08;;;;;;;2.95;2.47;;;19.70;35.80;;;;;;5147883;27;47061;-18
2022/01/10 10:53:34;;;;;;;3.15;2.25;;;19.70;36.00;;;;;;5147733;27;48110;-18
2022/01/10 10:56:03;;;;;;;3.15;2.28;;;19.60;36.00;;;;;;5147010;27;46843;-18
2022/01/10 10:58:30;;;;;;;2.53;2.00;;;19.60;36.10;;;;;;5147506;27;46941;-18
2022/01/10 11:00:57;;;;;;;2.40;2.08;;;19.50;36.20;;;;;;5147594;27;47255;-19
2022/01/10 11:03:24;;;;;;;3.42;2.15;;;19.50;36.20;;;;;;5147568;27;46849;-18
2022/01/10 11:05:53;;;;;;;2.45;2.25;;;19.50;36.30;;;;;;5147381;27;47015;-18
2022/01/10 11:08:22;;;;;;;3.05;2.50;;;19.40;36.30;;;;;;5147597;27;46821;-18
2022/01/10 11:10:49;;;;;;;2.50;1.90;;;19.40;36.40;;;;;;5147609;27;47252;-19
2022/01/10 11:13:15;;;;;;;3.50;2.40;;;19.40;36.50;;;;;;5147220;27;46960;-19
2022/01/10 11:15:42;;;;;;;2.30;2.10;;;19.30;36.50;;;;;;5145932;27;47169;-18
2022/01/10 11:18:09;;;;;;;4.25;2.40;;;19.30;36.60;;;;;;5146135;27;47201;-18
2022/01/10 11:20:42;;;;;;;2.40;2.20;;;19.30;36.70;;;;;;5146606;27;46990;-18
2022/01/10 11:23:09;;;;;;;2.67;2.47;;;19.20;36.70;;;;;;5147134;27;49028;-19
2022/01/10 11:25:39;;;;;;;2.40;2.20;;;19.20;36.80;;;;;;5146765;27;46841;-19
2022/01/10 11:28:07;;;;;;;2.83;2.17;;;19.10;36.90;;;;;;5147094;27;47290;-18
2022/01/10 11:30:35;;;;;;;3.13;2.40;;;19.10;36.90;;;;;;5147127;27;47244;-18
2022/01/10 11:33:07;;;;;;;2.47;2.10;;;19.10;37.00;;;;;;5147235;27;48902;-18
2022/01/10 11:35:35;;;;;;;2.90;2.45;;;19.00;37.10;;;;;;5147042;27;47055;-18
2022/01/10 11:38:15;;;;;;;2.33;2.08;;;19.00;37.20;;;;;;5148774;27;46807;-18
2022/01/10 11:40:43;;;;;;;2.40;2.20;;;18.90;37.20;;;;;;5154754;27;46963;-18
2022/01/10 11:43:12;;;;;;;2.55;2.33;;;18.90;37.80;;;;;;5155067;27;48739;-18
2022/01/10 11:45:42;;;;;;;2.38;2.17;;;18.80;37.30;;;;;;5155199;27;47165;-18
2022/01/10 11:48:16;;;;;;;2.17;1.98;;;18.80;37.20;;;;;;5155901;27;47083;-18
2022/01/10 11:50:45;;;;;;;2.10;1.90;;;18.80;37.30;;;;;;5150457;27;46978;-18
2022/01/10 11:53:13;;;;;;;1.85;1.75;;;18.80;37.30;;;;;;5146070;27;48108;-18
2022/01/10 11:55:48;;;;;;;4.05;2.10;;;18.70;37.50;;;;;;5144835;27;46969;-17
2022/01/10 11:58:16;;;;;;;2.40;2.20;;;18.70;37.40;;;;;;5146377;27;47013;-17
2022/01/10 12:00:43;;;;;;;2.30;2.05;;;18.70;37.50;;;;;;5147001;27;47263;-17
2022/01/10 12:03:09;;;;;;;2.90;1.95;;;18.70;37.50;;;;;;5146958;27;47062;-17
2022/01/10 12:05:36;;;;;;;2.80;2.10;;;18.70;37.70;;;;;;5146542;27;46839;-18
2022/01/10 12:08:03;;;;;;;2.08;1.98;;;18.60;37.70;;;;;;5148409;27;46916;-17
2022/01/10 12:10:30;;;;;;;1.77;1.67;;;18.60;37.70;;;;;;5150217;27;47141;-17
2022/01/10 12:13:03;;;;;;;3.85;2.40;;;18.50;38.30;;;;;;5150064;27;46905;-19
2022/01/10 12:15:33;;;;;;;2.35;1.98;;;18.50;37.90;;;;;;5150038;27;46915;-18
2022/01/10 12:18:00;;;;;;;3.15;2.00;;;18.50;37.90;;;;;;5150116;27;46969;-18
2022/01/10 12:20:27;;;;;;;2.45;2.25;;;18.40;37.90;;;;;;5149307;27;46992;-17
2022/01/10 12:22:54;;;;;;;2.20;2.00;;;18.40;37.90;;;;;;5149864;27;48832;-17
2022/01/10 12:25:21;;;;;;;1.75;1.65;;;18.40;38.00;;;;;;5128578;27;47403;-17
2022/01/10 12:27:48;;;;;;;2.92;1.90;;;18.30;38.10;;;;;;5129071;27;46925;-17
2022/01/10 12:30:16;;;;;;;2.28;2.08;;;18.30;38.00;;;;;;5129402;27;47008;-17
2022/01/10 12:32:43;;;;;;;2.55;2.00;;;18.40;38.10;;;;;;5128667;27;48205;-18
2022/01/10 12:35:10;;;;;;;2.15;1.83;;;18.30;38.00;;;;;;5145371;27;47000;-17
2022/01/10 12:37:37;;;;;;;1.95;1.75;;;18.30;38.10;;;;;;5149697;27;46985;-17
2022/01/10 12:40:05;;;;;;;1.92;1.80;;;18.40;38.10;;;;;;5150003;27;46893;-17
2022/01/10 12:42:32;;;;;;;2.58;1.75;;;18.40;37.90;;;;;;5149825;27;47808;-17
2022/01/10 12:44:58;;;;;;;2.22;2.00;;;18.70;37.70;;;;;;5149566;27;46889;-17
2022/01/10 12:47:26;;;;;;;2.08;1.77;;;19.10;37.10;;;;;;5149737;27;46998;-18
2022/01/10 12:49:53;;;;;;;2.25;1.98;;;19.50;36.40;;;;;;5149604;27;46866;-18
2022/01/10 12:52:21;;;;;;;2.13;1.92;;;19.90;35.90;;;;;;5149695;27;48193;-17
2022/01/10 12:54:48;;;;;;;3.15;2.10;;;20.10;35.50;;;;;;5149555;27;46898;-17